createdAt,value
2022-09-13T00:02:21.233Z,3.10
2022-09-13T00:04:48.462Z,2.60
2022-09-13T00:07:18.610Z,3.50
2022-09-13T00:09:45.488Z,3.50
2022-09-13T00:12:12.727Z,4.00
2022-09-13T00:14:40.591Z,1.90
2022-09-13T00:17:07.789Z,2.00
2022-09-13T00:19:34.870Z,1.90
2022-09-13T00:22:01.642Z,2.00
2022-09-13T00:24:28.529Z,3.20
2022-09-13T00:26:55.388Z,3.00
2022-09-13T00:29:22.199Z,2.10
2022-09-13T00:31:49.345Z,2.80
2022-09-13T00:34:16.601Z,1.40
2022-09-13T00:36:43.873Z,3.50
2022-09-13T00:39:11.337Z,2.90
2022-09-13T00:41:38.655Z,1.80
2022-09-13T00:44:06.734Z,2.70
2022-09-13T00:46:44.661Z,2.80
2022-09-13T00:49:18.643Z,4.40
2022-09-13T00:51:55.633Z,2.20
2022-09-13T00:54:24.311Z,2.30
2022-09-13T00:56:53.693Z,4.80
2022-09-13T00:59:33.013Z,3.10
2022-09-13T01:01:59.970Z,4.10
2022-09-13T01:04:28.311Z,2.40
2022-09-13T01:06:57.370Z,3.80
2022-09-13T01:09:24.371Z,4.90
2022-09-13T01:12:04.723Z,3.00
2022-09-13T01:14:32.291Z,3.20
2022-09-13T01:17:01.315Z,3.70
2022-09-13T01:19:28.221Z,4.10
2022-09-13T01:22:25.925Z,5.00
2022-09-13T01:25:30.007Z,6.80
2022-09-13T01:28:03.818Z,5.50
2022-09-13T01:30:40.899Z,3.90
2022-09-13T01:33:15.626Z,5.40
2022-09-13T01:36:13.866Z,5.40
2022-09-13T01:38:58.356Z,5.40
2022-09-13T01:41:37.361Z,5.90
2022-09-13T01:44:26.377Z,6.90
2022-09-13T01:47:20.832Z,7.30
2022-09-13T01:49:54.652Z,3.40
2022-09-13T01:52:26.729Z,5.10
2022-09-13T01:55:03.388Z,5.60
2022-09-13T01:57:41.542Z,6.00
2022-09-13T02:00:15.494Z,5.50
2022-09-13T02:03:11.133Z,7.80
2022-09-13T02:05:44.498Z,7.30
2022-09-13T02:08:38.672Z,4.80
2022-09-13T02:11:11.139Z,6.00
2022-09-13T02:13:59.203Z,5.20
2022-09-13T02:19:00.353Z,6.30
2022-09-13T02:21:32.862Z,8.10
2022-09-13T02:24:08.667Z,6.90
2022-09-13T02:26:37.887Z,3.80
2022-09-13T02:29:11.817Z,5.30
2022-09-13T02:31:45.423Z,5.30
2022-09-13T02:34:29.350Z,6.90
2022-09-13T02:36:56.441Z,5.90
2022-09-13T02:39:25.181Z,8.00
2022-09-13T02:41:56.445Z,7.50
2022-09-13T02:44:32.460Z,3.70
2022-09-13T02:47:33.268Z,5.90
2022-09-13T02:50:31.184Z,6.50
2022-09-13T02:53:07.721Z,6.10
2022-09-13T02:55:42.951Z,6.20
2022-09-13T02:58:26.898Z,7.50
2022-09-13T03:00:54.931Z,6.30
2022-09-13T03:03:21.979Z,4.50
2022-09-13T03:05:48.897Z,5.30
2022-09-13T03:08:15.719Z,7.70
2022-09-13T03:10:48.685Z,6.50
2022-09-13T03:13:37.943Z,8.10
2022-09-13T03:16:14.143Z,6.20
2022-09-13T03:18:48.744Z,6.70
2022-09-13T03:21:32.044Z,8.40
2022-09-13T03:24:08.265Z,5.40
2022-09-13T03:26:41.163Z,5.50
2022-09-13T03:29:14.145Z,5.20
2022-09-13T03:32:20.557Z,5.80
2022-09-13T03:35:20.534Z,7.40
2022-09-13T03:37:50.910Z,7.90
2022-09-13T03:40:42.322Z,5.50
2022-09-13T03:43:35.692Z,4.30
2022-09-13T03:46:29.496Z,6.40
2022-09-13T03:48:57.163Z,6.90
2022-09-13T03:51:24.119Z,5.70
2022-09-13T03:53:58.771Z,7.50
2022-09-13T03:56:25.705Z,7.30
2022-09-13T03:58:52.462Z,5.30
2022-09-13T04:01:24.114Z,6.00
2022-09-13T04:03:54.653Z,5.90
2022-09-13T04:06:23.857Z,7.00
2022-09-13T04:08:50.920Z,7.20
2022-09-13T04:11:18.024Z,6.50
2022-09-13T04:13:45.147Z,9.60
2022-09-13T04:16:12.289Z,9.20
2022-09-13T04:18:39.862Z,6.50
2022-09-13T04:21:07.436Z,6.10
2022-09-13T04:23:34.424Z,9.80
2022-09-13T04:26:04.619Z,9.80
2022-09-13T04:28:31.428Z,8.40
2022-09-13T04:30:58.447Z,8.00
2022-09-13T04:33:26.007Z,10.90
2022-09-13T04:36:00.241Z,9.10
2022-09-13T04:38:27.916Z,10.80
2022-09-13T04:40:55.773Z,9.00
2022-09-13T04:43:23.101Z,7.90
2022-09-13T04:45:50.247Z,8.80
2022-09-13T04:48:17.125Z,6.80
2022-09-13T04:50:45.027Z,8.00
2022-09-13T04:53:11.954Z,7.70
2022-09-13T04:55:39.180Z,10.60
2022-09-13T04:58:06.307Z,6.40
2022-09-13T05:00:34.189Z,7.10
2022-09-13T05:03:01.082Z,9.70
2022-09-13T05:05:32.761Z,6.50
2022-09-13T05:07:59.666Z,9.80
2022-09-13T05:10:27.265Z,9.40
2022-09-13T05:12:54.178Z,8.80
2022-09-13T05:15:21.152Z,8.10
2022-09-13T05:17:48.010Z,5.30
2022-09-13T05:20:15.029Z,5.70
2022-09-13T05:22:41.960Z,12.60
2022-09-13T05:25:09.457Z,7.70
2022-09-13T05:27:36.459Z,10.10
2022-09-13T05:30:06.533Z,10.40
2022-09-13T05:32:33.579Z,18.80
2022-09-13T05:35:00.624Z,16.00
2022-09-13T05:37:27.669Z,8.40
2022-09-13T05:40:10.780Z,12.50
2022-09-13T05:42:39.678Z,8.30
2022-09-13T05:45:07.568Z,9.60
2022-09-13T05:47:34.464Z,14.20
2022-09-13T05:50:10.400Z,12.30
2022-09-13T05:52:38.227Z,17.70
2022-09-13T05:55:05.741Z,21.10
2022-09-13T05:57:32.805Z,11.20
2022-09-13T05:59:59.880Z,15.60
2022-09-13T06:02:27.318Z,15.40
2022-09-13T06:04:54.414Z,9.20
2022-09-13T06:07:21.202Z,10.60
2022-09-13T06:09:48.492Z,7.70
2022-09-13T06:12:15.335Z,18.00
2022-09-13T06:14:42.572Z,8.10
2022-09-13T06:17:09.496Z,8.80
2022-09-13T06:19:36.310Z,9.10
2022-09-13T06:22:03.351Z,11.50
2022-09-13T06:24:31.251Z,7.90
2022-09-13T06:26:58.398Z,11.00
2022-09-13T06:29:25.214Z,14.10
2022-09-13T06:31:52.230Z,15.40
2022-09-13T06:34:19.241Z,17.20
2022-09-13T06:36:46.480Z,17.50
2022-09-13T06:39:13.607Z,17.60
2022-09-13T06:41:40.453Z,16.50
2022-09-13T06:44:07.319Z,13.00
2022-09-13T06:46:35.001Z,18.60
2022-09-13T06:49:03.970Z,7.60
2022-09-13T06:53:58.766Z,5.00
2022-09-13T06:56:27.489Z,6.50
2022-09-13T06:58:58.933Z,4.90
2022-09-13T07:01:28.225Z,4.90
2022-09-13T07:03:59.064Z,6.70
2022-09-13T07:06:27.916Z,5.90
2022-09-13T07:11:23.963Z,7.10
2022-09-13T07:13:56.310Z,7.60
2022-09-13T07:16:28.134Z,5.10
2022-09-13T07:19:04.744Z,5.60
2022-09-13T07:21:32.433Z,5.90
2022-09-13T07:23:59.614Z,18.40
2022-09-13T07:26:29.989Z,14.90
2022-09-13T07:28:59.385Z,17.50
2022-09-13T07:31:37.397Z,11.30
2022-09-13T07:34:06.293Z,8.40
2022-09-13T07:36:35.894Z,5.20
2022-09-13T07:39:03.300Z,4.80
2022-09-13T07:41:30.748Z,5.30
2022-09-13T07:43:57.901Z,7.30
2022-09-13T07:46:27.473Z,11.60
2022-09-13T07:51:24.536Z,13.40
2022-09-13T07:53:56.517Z,16.40
2022-09-13T07:56:26.820Z,6.00
2022-09-13T07:58:55.389Z,14.10
2022-09-13T08:01:23.202Z,13.70
2022-09-13T08:03:52.515Z,9.90
2022-09-13T08:06:20.599Z,13.90
2022-09-13T08:08:47.587Z,9.30
2022-09-13T08:11:19.434Z,8.40
2022-09-13T08:13:47.323Z,15.30
2022-09-13T08:16:14.642Z,11.00
2022-09-13T08:18:45.579Z,8.90
2022-09-13T08:21:12.447Z,9.70
2022-09-13T08:23:39.640Z,10.50
2022-09-13T08:26:08.072Z,7.50
2022-09-13T08:28:35.698Z,10.40
2022-09-13T08:31:08.959Z,12.00
2022-09-13T08:33:36.003Z,17.10
2022-09-13T08:36:03.949Z,10.20
2022-09-13T08:38:30.975Z,7.80
2022-09-13T08:41:19.199Z,7.40
2022-09-13T08:46:43.013Z,6.20
2022-09-13T08:49:19.296Z,8.10
2022-09-13T08:51:52.094Z,7.60
2022-09-13T08:54:19.340Z,7.90
2022-09-13T08:56:56.448Z,5.70
2022-09-13T08:59:32.476Z,6.90
2022-09-13T09:02:10.550Z,7.50
2022-09-13T09:04:50.960Z,7.50
2022-09-13T09:07:20.590Z,7.40
2022-09-13T09:09:58.205Z,8.00
2022-09-13T09:12:31.315Z,7.80
2022-09-13T09:15:22.744Z,8.80
2022-09-13T09:17:55.858Z,9.70
2022-09-13T09:20:41.586Z,6.60
2022-09-13T09:23:19.116Z,6.60
2022-09-13T09:25:50.934Z,7.30
2022-09-13T09:28:19.227Z,7.00
2022-09-13T09:31:00.857Z,8.60
2022-09-13T09:36:26.142Z,9.40
2022-09-13T09:38:53.140Z,7.70
2022-09-13T09:41:30.002Z,9.90
2022-09-13T09:44:06.597Z,6.30
2022-09-13T09:46:37.449Z,7.20
2022-09-13T09:49:45.350Z,6.30
2022-09-13T09:52:13.035Z,6.60
2022-09-13T09:54:41.824Z,5.90
2022-09-13T09:57:09.051Z,9.00
2022-09-13T09:59:37.453Z,8.00
2022-09-13T10:02:15.508Z,7.70
2022-09-13T10:04:42.808Z,7.00
2022-09-13T10:07:22.861Z,7.00
2022-09-13T10:10:20.599Z,4.50
2022-09-13T10:12:50.096Z,5.70
2022-09-13T10:15:19.551Z,12.90
2022-09-13T10:18:42.403Z,8.30
2022-09-13T10:21:25.932Z,6.60
2022-09-13T10:26:25.535Z,7.60
2022-09-13T10:29:14.114Z,10.60
2022-09-13T10:31:45.466Z,9.10
2022-09-13T10:34:16.502Z,8.10
2022-09-13T10:37:03.622Z,4.80
2022-09-13T10:39:33.204Z,5.20
2022-09-13T10:42:02.370Z,5.50
2022-09-13T10:44:41.613Z,9.90
2022-09-13T10:47:13.540Z,12.20
2022-09-13T10:49:54.486Z,14.00
2022-09-13T10:52:43.308Z,9.60
2022-09-13T10:55:23.121Z,8.70
2022-09-13T10:57:51.136Z,5.00
2022-09-13T11:00:20.426Z,6.20
2022-09-13T11:03:12.221Z,4.60
2022-09-13T11:05:50.909Z,7.30
2022-09-13T11:08:36.668Z,8.60
2022-09-13T11:11:11.598Z,9.00
2022-09-13T11:14:11.321Z,5.20
2022-09-13T11:16:54.077Z,7.90
2022-09-13T11:19:33.207Z,6.10
2022-09-13T11:22:31.221Z,8.30
2022-09-13T11:25:17.849Z,5.00
2022-09-13T11:28:07.632Z,4.40
2022-09-13T11:30:39.207Z,5.40
2022-09-13T11:33:22.581Z,6.10
2022-09-13T11:36:14.701Z,7.20
2022-09-13T11:39:00.614Z,5.20
2022-09-13T11:41:49.212Z,5.90
2022-09-13T11:44:37.770Z,6.10
2022-09-13T11:47:32.415Z,5.10
2022-09-13T11:50:21.570Z,4.80
2022-09-13T11:53:36.554Z,4.70
2022-09-13T11:56:09.328Z,4.10
2022-09-13T11:58:40.115Z,3.90
2022-09-13T12:01:08.796Z,4.10
2022-09-13T12:03:59.107Z,7.80
2022-09-13T12:06:30.680Z,6.10
2022-09-13T12:09:07.668Z,6.00
2022-09-13T12:11:36.542Z,6.70
2022-09-13T12:14:08.422Z,9.30
2022-09-13T12:16:46.666Z,7.00
2022-09-13T12:19:23.960Z,4.90
2022-09-13T12:21:52.088Z,5.00
2022-09-13T12:24:30.759Z,4.50
2022-09-13T12:27:01.235Z,5.70
2022-09-13T12:29:34.779Z,3.50
2022-09-13T12:32:06.299Z,6.20
2022-09-13T12:34:59.340Z,4.10
2022-09-13T12:37:45.522Z,7.20
2022-09-13T12:40:45.664Z,5.40
2022-09-13T12:43:35.550Z,4.70
2022-09-13T12:46:46.982Z,3.70
2022-09-13T12:49:51.714Z,3.60
2022-09-13T12:52:57.769Z,4.10
2022-09-13T12:55:49.840Z,6.20
2022-09-13T12:58:39.530Z,4.10
2022-09-13T13:01:25.606Z,5.60
2022-09-13T13:03:56.320Z,5.40
2022-09-13T13:06:25.798Z,4.00
2022-09-13T13:08:55.153Z,5.50
2022-09-13T13:11:27.308Z,3.60
2022-09-13T13:13:58.263Z,3.50
2022-09-13T13:16:29.150Z,4.80
2022-09-13T13:19:00.464Z,4.00
2022-09-13T13:21:39.145Z,4.70
2022-09-13T13:24:20.858Z,4.80
2022-09-13T13:26:55.598Z,5.10
2022-09-13T13:29:26.360Z,5.00
2022-09-13T13:32:07.706Z,3.30
2022-09-13T13:34:49.082Z,3.50
2022-09-13T13:39:49.970Z,4.50
2022-09-13T13:42:26.584Z,4.50
2022-09-13T13:44:53.434Z,4.60
2022-09-13T13:47:20.512Z,3.90
2022-09-13T13:49:52.659Z,5.70
2022-09-13T13:52:22.645Z,4.30
2022-09-13T13:54:57.512Z,8.10
2022-09-13T13:57:43.778Z,4.20
2022-09-13T14:00:21.966Z,6.60
2022-09-13T14:02:54.732Z,3.40
2022-09-13T14:05:32.793Z,4.20
2022-09-13T14:08:34.165Z,5.30
2022-09-13T14:16:11.364Z,4.40
2022-09-13T14:18:42.911Z,5.20
2022-09-13T14:21:29.698Z,5.80
2022-09-13T14:24:09.977Z,3.60
2022-09-13T14:26:37.013Z,3.50
2022-09-13T14:29:08.524Z,5.40
2022-09-13T14:31:35.975Z,5.30
2022-09-13T14:34:04.270Z,7.00
2022-09-13T14:36:32.490Z,3.90
2022-09-13T14:39:00.478Z,4.40
2022-09-13T14:41:34.564Z,3.70
2022-09-13T14:44:28.165Z,3.40
2022-09-13T14:47:16.665Z,3.30
2022-09-13T14:49:49.219Z,3.20
2022-09-13T14:52:21.326Z,3.40
2022-09-13T14:54:51.213Z,3.60
2022-09-13T14:57:29.937Z,5.20
2022-09-13T14:59:59.031Z,4.80
2022-09-13T15:02:29.894Z,3.40
2022-09-13T15:04:58.569Z,2.40
2022-09-13T15:09:57.113Z,3.00
2022-09-13T15:12:26.354Z,3.20
2022-09-13T15:18:11.978Z,3.90
2022-09-13T15:20:59.113Z,3.90
2022-09-13T15:23:33.852Z,4.10
2022-09-13T15:26:03.413Z,3.60
2022-09-13T15:28:34.487Z,5.00
2022-09-13T15:31:02.263Z,5.90
2022-09-13T15:33:31.705Z,4.40
2022-09-13T15:36:20.387Z,6.20
2022-09-13T15:38:59.626Z,5.70
2022-09-13T15:41:37.105Z,6.10
2022-09-13T15:44:05.968Z,2.80
2022-09-13T15:49:02.516Z,5.30
2022-09-13T15:51:30.495Z,5.10
2022-09-13T15:53:57.451Z,5.00
2022-09-13T15:56:32.387Z,6.00
2022-09-13T15:58:59.571Z,4.60
2022-09-13T16:01:27.697Z,5.40
2022-09-13T16:03:54.751Z,4.20
2022-09-13T16:06:24.715Z,3.10
2022-09-13T16:08:52.027Z,3.20
2022-09-13T16:11:19.167Z,2.90
2022-09-13T16:13:46.916Z,4.80
2022-09-13T16:16:14.308Z,4.10
2022-09-13T16:18:41.779Z,5.20
2022-09-13T16:21:08.868Z,5.70
2022-09-13T16:23:35.837Z,3.40
2022-09-13T16:26:02.981Z,3.60
2022-09-13T16:28:30.034Z,6.10
2022-09-13T16:30:57.236Z,4.70
2022-09-13T16:33:24.410Z,5.90
2022-09-13T16:35:51.460Z,5.50
2022-09-13T16:38:18.321Z,6.20
2022-09-13T16:40:45.702Z,4.50
2022-09-13T16:43:13.526Z,3.60
2022-09-13T16:45:41.301Z,2.60
2022-09-13T16:48:08.834Z,3.10
2022-09-13T16:50:39.766Z,3.60
2022-09-13T16:53:06.791Z,4.70
2022-09-13T16:55:33.761Z,4.20
2022-09-13T16:58:01.364Z,4.20
2022-09-13T17:00:30.133Z,5.10
2022-09-13T17:02:57.484Z,4.70
2022-09-13T17:05:24.739Z,3.70
2022-09-13T17:07:52.194Z,3.20
2022-09-13T17:10:20.797Z,5.10
2022-09-13T17:12:50.186Z,5.60
2022-09-13T17:15:17.430Z,5.00
2022-09-13T17:17:44.661Z,6.80
2022-09-13T17:20:13.231Z,7.30
2022-09-13T17:22:40.720Z,8.60
2022-09-13T17:25:09.304Z,4.20
2022-09-13T17:27:36.417Z,5.00
2022-09-13T17:30:05.352Z,7.00
2022-09-13T17:32:32.600Z,6.10
2022-09-13T17:34:59.939Z,7.30
2022-09-13T17:37:27.029Z,7.00
2022-09-13T17:39:54.487Z,6.70
2022-09-13T17:42:23.485Z,6.70
2022-09-13T17:44:51.105Z,7.00
2022-09-13T17:47:18.253Z,4.70
2022-09-13T17:49:46.761Z,5.40
2022-09-13T17:52:14.131Z,5.80
2022-09-13T17:54:41.368Z,6.80
2022-09-13T17:57:08.491Z,7.70
2022-09-13T17:59:35.531Z,5.80
2022-09-13T18:02:02.625Z,7.00
2022-09-13T18:04:30.040Z,5.40
2022-09-13T18:06:57.324Z,4.20
2022-09-13T18:09:25.066Z,4.00
2022-09-13T18:11:52.197Z,6.80
2022-09-13T18:14:19.655Z,6.70
2022-09-13T18:16:58.273Z,5.90
2022-09-13T18:19:44.886Z,6.10
2022-09-13T18:22:13.237Z,7.80
2022-09-13T18:24:41.153Z,5.80
2022-09-13T18:27:08.354Z,6.00
2022-09-13T18:29:36.011Z,7.30
2022-09-13T18:32:03.080Z,7.00
2022-09-13T18:34:30.538Z,6.70
2022-09-13T18:36:57.990Z,6.20
2022-09-13T18:39:25.139Z,8.20
2022-09-13T18:41:52.495Z,8.80
2022-09-13T18:44:20.052Z,4.70
2022-09-13T18:46:47.612Z,4.60
2022-09-13T18:49:15.475Z,3.70
2022-09-13T18:51:43.955Z,10.10
2022-09-13T18:54:13.353Z,5.70
2022-09-13T18:56:41.736Z,6.10
2022-09-13T18:59:11.239Z,5.60
2022-09-13T19:01:41.315Z,4.70
2022-09-13T19:04:15.100Z,3.60
2022-09-13T19:06:44.056Z,3.60
2022-09-13T19:09:11.528Z,3.70
2022-09-13T19:11:49.161Z,3.90
2022-09-13T19:14:23.230Z,8.30
2022-09-13T19:16:51.593Z,6.90
2022-09-13T19:19:19.262Z,5.00
2022-09-13T19:21:46.508Z,4.60
2022-09-13T19:24:18.609Z,4.00
2022-09-13T19:26:47.857Z,2.70
2022-09-13T19:29:17.052Z,4.60
2022-09-13T19:31:48.211Z,5.20
2022-09-13T19:34:17.665Z,5.30
2022-09-13T19:36:45.270Z,6.00
2022-09-13T19:39:12.524Z,3.60
2022-09-13T19:41:39.900Z,4.10
2022-09-13T19:44:07.232Z,3.90
2022-09-13T19:46:37.879Z,2.80
2022-09-13T19:49:05.863Z,6.00
2022-09-13T19:51:35.732Z,4.30
2022-09-13T19:54:02.789Z,6.20
2022-09-13T19:56:33.217Z,5.20
2022-09-13T19:59:01.262Z,4.80
2022-09-13T20:01:34.192Z,5.30
2022-09-13T20:04:03.854Z,3.20
2022-09-13T20:06:37.789Z,3.30
2022-09-13T20:09:05.275Z,2.40
2022-09-13T20:11:33.314Z,3.90
2022-09-13T20:14:01.201Z,8.60
2022-09-13T20:16:32.252Z,3.30
2022-09-13T20:18:59.094Z,4.60
2022-09-13T20:21:27.329Z,5.30
2022-09-13T20:23:55.427Z,5.20
2022-09-13T20:26:25.733Z,3.60
2022-09-13T20:29:00.696Z,6.80
2022-09-13T20:31:28.615Z,4.20
2022-09-13T20:33:56.698Z,5.40
2022-09-13T20:36:25.087Z,7.60
2022-09-13T20:38:52.942Z,4.70
2022-09-13T20:41:19.998Z,4.80
2022-09-13T20:43:49.037Z,4.00
2022-09-13T20:46:16.278Z,3.80
2022-09-13T20:48:44.613Z,4.40
2022-09-13T20:51:13.553Z,5.40
2022-09-13T20:53:41.060Z,4.70
2022-09-13T20:56:10.358Z,4.80
2022-09-13T20:58:37.674Z,7.20
2022-09-13T21:01:09.736Z,3.60
2022-09-13T21:03:38.926Z,4.10
2022-09-13T21:06:08.093Z,4.60
2022-09-13T21:08:41.502Z,5.10
2022-09-13T21:11:13.941Z,6.00
2022-09-13T21:13:47.539Z,5.00
2022-09-13T21:16:16.961Z,6.20
2022-09-13T21:18:44.532Z,3.70
2022-09-13T21:21:18.232Z,3.70
2022-09-13T21:23:45.436Z,2.80
2022-09-13T21:26:14.254Z,3.40
2022-09-13T21:28:42.957Z,3.20
2022-09-13T21:33:38.700Z,2.80
2022-09-13T21:36:08.049Z,5.80
2022-09-13T21:38:36.023Z,4.60
2022-09-13T21:41:05.448Z,3.40
2022-09-13T21:43:32.614Z,3.10
2022-09-13T21:46:04.894Z,3.80
2022-09-13T21:48:33.545Z,6.40
2022-09-13T21:51:13.734Z,5.00
2022-09-13T21:53:40.697Z,5.50
2022-09-13T21:56:09.185Z,5.80
2022-09-13T21:58:36.743Z,5.50
2022-09-13T22:01:04.746Z,5.70
2022-09-13T22:03:34.675Z,5.70
2022-09-13T22:06:01.680Z,3.40
2022-09-13T22:08:37.307Z,2.90
2022-09-13T22:11:15.471Z,3.80
2022-09-13T22:13:46.353Z,6.90
2022-09-13T22:16:21.472Z,3.90
2022-09-13T22:18:49.826Z,4.90
2022-09-13T22:21:19.837Z,4.40
2022-09-13T22:23:46.753Z,2.70
2022-09-13T22:26:15.996Z,2.80
2022-09-13T22:28:42.798Z,2.60
2022-09-13T22:31:31.251Z,3.00
2022-09-13T22:33:59.008Z,4.20
2022-09-13T22:36:26.260Z,4.10
2022-09-13T22:38:55.101Z,3.20
2022-09-13T22:43:50.019Z,4.00
2022-09-13T22:46:19.561Z,4.00
2022-09-13T22:48:47.084Z,3.70
2022-09-13T22:51:15.104Z,3.00
2022-09-13T22:53:42.843Z,2.00
2022-09-13T22:56:21.836Z,2.80
2022-09-13T22:58:48.943Z,4.70
2022-09-13T23:01:18.641Z,4.00
2022-09-13T23:03:46.679Z,3.80
2022-09-13T23:06:18.917Z,3.70
2022-09-13T23:08:50.069Z,3.30
2022-09-13T23:11:25.037Z,5.20
2022-09-13T23:13:53.322Z,4.50
2022-09-13T23:16:21.220Z,3.30
2022-09-13T23:18:48.571Z,3.10
2022-09-13T23:21:23.662Z,6.40
2022-09-13T23:23:50.617Z,4.70
2022-09-13T23:26:19.712Z,4.50
2022-09-13T23:28:47.592Z,5.10
2022-09-13T23:31:19.214Z,4.30
2022-09-13T23:33:48.647Z,6.40
2022-09-13T23:36:17.847Z,4.80
2022-09-13T23:38:49.894Z,4.40
2022-09-13T23:41:17.874Z,4.10
2022-09-13T23:43:44.907Z,4.00
2022-09-13T23:46:11.972Z,2.90
2022-09-13T23:48:39.953Z,3.70
2022-09-13T23:51:08.549Z,3.50
2022-09-13T23:56:04.175Z,5.00
2022-09-13T23:58:32.152Z,3.70
